Time;durP1;ratioP1;P1;durP2;ratioP2;P2;SDS_P1;SDS_P2;PMS_P1;PMS_P2;Temp;Humidity;BMP_temperature;BMP_pressure;BME280_temperature;BME280_humidity;BME280_pressure;Samples;Min_cycle;Max_cycle;Signal;HPM_P1;HPM_P2
2021/12/05 00:20:56;;;;;;;13.45;5.57;;;;;;;;;;5052793;28;20049;-65
2021/12/05 00:23:32;;;;;;;14.82;5.65;;;;;;;;;;5052339;28;20107;-65
2021/12/05 00:26:01;;;;;;;13.27;6.03;;;;;;;;;;5035461;28;20041;-65
2021/12/05 00:40:12;;;;;;;15.85;7.38;;;;;;;;;;5052546;28;20052;-65
2021/12/05 00:47:55;;;;;;;15.23;6.25;;;;;;;;;;5052094;28;20099;-65
2021/12/05 00:53:42;;;;;;;10.27;5.78;;;;;;;;;;5052157;28;20076;-65
2021/12/05 01:16:41;;;;;;;12.93;5.10;;;;;;;;;;5051881;28;20124;-65
2021/12/05 01:19:08;;;;;;;10.98;5.10;;;;;;;;;;5051222;28;20056;-65
2021/12/05 01:21:35;;;;;;;13.15;5.55;;;;;;;;;;5051378;28;20056;-65
2021/12/05 01:24:22;;;;;;;10.25;4.95;;;;;;;;;;5017530;28;20789;-65
2021/12/05 01:26:54;;;;;;;17.70;5.60;;;;;;;;;;5013053;28;20053;-65
2021/12/05 01:55:42;;;;;;;14.00;5.03;;;;;;;;;;5030986;28;20550;-66
2021/12/05 02:01:26;;;;;;;15.27;5.30;;;;;;;;;;5035119;28;20060;-65
2021/12/05 02:12:08;;;;;;;9.68;5.38;;;;;;;;;;5035323;28;20045;-65
2021/12/05 02:39:46;;;;;;;24.83;9.20;;;;;;;;;;5054179;28;20040;-65
2021/12/05 02:42:25;;;;;;;17.92;9.88;;;;;;;;;;5054675;28;20080;-65
2021/12/05 02:44:51;;;;;;;26.40;10.65;;;;;;;;;;5054874;28;20041;-65
2021/12/05 02:47:20;;;;;;;26.67;10.05;;;;;;;;;;5054151;28;20047;-65
2021/12/05 02:49:47;;;;;;;32.83;11.27;;;;;;;;;;5054540;28;20671;-65
2021/12/05 02:52:19;;;;;;;26.35;10.75;;;;;;;;;;5054526;28;20090;-66
2021/12/05 02:54:50;;;;;;;32.22;10.57;;;;;;;;;;5054104;28;20391;-66
2021/12/05 02:57:19;;;;;;;23.20;11.32;;;;;;;;;;5054659;28;20045;-66
2021/12/05 02:59:52;;;;;;;27.98;12.15;;;;;;;;;;5054597;28;20099;-66
2021/12/05 03:02:19;;;;;;;24.90;11.10;;;;;;;;;;5053756;28;20123;-66
2021/12/05 03:04:47;;;;;;;30.95;11.80;;;;;;;;;;5054136;28;20037;-66
2021/12/05 03:07:20;;;;;;;24.83;12.13;;;;;;;;;;5054361;28;20099;-66
2021/12/05 03:09:46;;;;;;;26.10;11.43;;;;;;;;;;5035231;28;20376;-66
2021/12/05 03:12:17;;;;;;;27.13;12.73;;;;;;;;;;5053063;28;20459;-66
2021/12/05 03:14:44;;;;;;;28.70;13.23;;;;;;;;;;5054224;28;20041;-66
2021/12/05 03:17:10;;;;;;;25.42;12.07;;;;;;;;;;5053277;28;20041;-66
2021/12/05 03:19:36;;;;;;;22.35;12.18;;;;;;;;;;5054106;28;20372;-66
2021/12/05 03:22:03;;;;;;;22.95;11.85;;;;;;;;;;5054197;28;20041;-66
2021/12/05 03:24:29;;;;;;;27.90;12.27;;;;;;;;;;5033484;28;20542;-66
2021/12/05 03:26:55;;;;;;;33.00;12.05;;;;;;;;;;5033867;28;20495;-66
2021/12/05 03:29:23;;;;;;;31.45;11.90;;;;;;;;;;5033621;28;20129;-66
2021/12/05 03:31:50;;;;;;;25.45;11.27;;;;;;;;;;5033228;28;20041;-66
2021/12/05 03:34:17;;;;;;;21.90;11.05;;;;;;;;;;5033609;28;20048;-66
2021/12/05 03:36:45;;;;;;;22.92;10.60;;;;;;;;;;5033855;28;20049;-66
2021/12/05 03:39:12;;;;;;;24.98;11.02;;;;;;;;;;5033226;28;20116;-66
2021/12/05 03:41:38;;;;;;;24.85;10.95;;;;;;;;;;5033671;28;20041;-66
2021/12/05 03:44:06;;;;;;;21.25;11.15;;;;;;;;;;5033763;28;20052;-66
2021/12/05 03:46:32;;;;;;;29.30;10.82;;;;;;;;;;5032985;28;20136;-66
2021/12/05 03:49:00;;;;;;;26.83;10.65;;;;;;;;;;5033555;28;20120;-66
2021/12/05 03:51:28;;;;;;;21.60;9.77;;;;;;;;;;5033520;28;20086;-65
2021/12/05 03:53:54;;;;;;;22.60;9.38;;;;;;;;;;5032680;28;20120;-65
2021/12/05 03:56:21;;;;;;;25.10;10.48;;;;;;;;;;5033296;28;20042;-65
2021/12/05 03:58:48;;;;;;;27.60;10.60;;;;;;;;;;5033555;28;20044;-65
2021/12/05 04:01:14;;;;;;;26.35;10.43;;;;;;;;;;5032709;28;20042;-65
2021/12/05 04:03:41;;;;;;;24.50;9.23;;;;;;;;;;5033220;28;20125;-65
2021/12/05 04:06:09;;;;;;;19.75;8.85;;;;;;;;;;5033209;28;20472;-65
2021/12/05 04:08:36;;;;;;;20.92;9.30;;;;;;;;;;5014939;28;20121;-65
2021/12/05 04:11:07;;;;;;;24.88;8.90;;;;;;;;;;5032893;28;20052;-65
2021/12/05 04:13:33;;;;;;;26.13;9.55;;;;;;;;;;5033142;28;20048;-65
2021/12/05 04:16:00;;;;;;;24.08;9.43;;;;;;;;;;5032472;28;20037;-65
2021/12/05 04:18:27;;;;;;;22.20;8.88;;;;;;;;;;5032739;28;20068;-65
2021/12/05 04:20:53;;;;;;;20.70;8.38;;;;;;;;;;5014931;28;20440;-65
2021/12/05 04:23:19;;;;;;;28.52;8.43;;;;;;;;;;5041889;28;20060;-65
2021/12/05 04:25:48;;;;;;;22.20;8.88;;;;;;;;;;5052705;28;20503;-65
2021/12/05 04:28:15;;;;;;;22.10;8.23;;;;;;;;;;5052626;28;20051;-65
2021/12/05 04:30:41;;;;;;;19.95;8.70;;;;;;;;;;5033855;28;20048;-65
2021/12/05 04:33:07;;;;;;;25.55;7.93;;;;;;;;;;5052607;28;20033;-65
2021/12/05 04:35:34;;;;;;;16.30;7.30;;;;;;;;;;5052478;28;20399;-65
2021/12/05 04:38:00;;;;;;;19.90;8.07;;;;;;;;;;5052103;28;20478;-65
2021/12/05 04:40:26;;;;;;;19.65;7.13;;;;;;;;;;5052686;28;20163;-65
2021/12/05 04:42:52;;;;;;;26.95;7.90;;;;;;;;;;5052537;28;20045;-65
2021/12/05 04:45:23;;;;;;;20.75;7.35;;;;;;;;;;5051910;28;20045;-65
2021/12/05 04:47:49;;;;;;;17.48;7.43;;;;;;;;;;5052505;28;20047;-65
2021/12/05 04:50:16;;;;;;;20.48;7.78;;;;;;;;;;5052419;28;20080;-65
2021/12/05 04:52:42;;;;;;;21.17;6.63;;;;;;;;;;5033499;28;20368;-65
2021/12/05 04:55:10;;;;;;;23.42;7.25;;;;;;;;;;5052082;28;20581;-65
2021/12/05 04:57:37;;;;;;;19.10;7.50;;;;;;;;;;5052161;28;20083;-65
2021/12/05 05:00:07;;;;;;;19.33;8.52;;;;;;;;;;5051646;28;20041;-65
2021/12/05 05:02:33;;;;;;;16.35;6.55;;;;;;;;;;5052128;28;20049;-65
2021/12/05 05:04:59;;;;;;;18.05;6.68;;;;;;;;;;5051891;28;20081;-65
2021/12/05 05:07:27;;;;;;;18.58;6.88;;;;;;;;;;5051146;28;20037;-65
2021/12/05 05:09:55;;;;;;;13.43;6.30;;;;;;;;;;5033955;28;20053;-65
2021/12/05 05:12:21;;;;;;;17.45;6.47;;;;;;;;;;5052009;28;20526;-65
2021/12/05 05:14:47;;;;;;;16.73;6.05;;;;;;;;;;5051450;28;20037;-65
2021/12/05 05:17:13;;;;;;;18.65;6.28;;;;;;;;;;5051905;28;20064;-65
2021/12/05 05:19:45;;;;;;;19.02;6.60;;;;;;;;;;5052045;28;20036;-65
2021/12/05 05:25:45;;;;;;;18.33;6.30;;;;;;;;;;5006856;28;20123;-65
2021/12/05 05:28:34;;;;;;;16.45;6.07;;;;;;;;;;5051204;28;20099;-65
2021/12/05 05:39:08;;;;;;;21.05;7.35;;;;;;;;;;5050468;28;20047;-65
2021/12/05 05:44:36;;;;;;;10.77;5.53;;;;;;;;;;5050999;28;20227;-65
2021/12/05 05:47:11;;;;;;;19.98;6.38;;;;;;;;;;5051359;28;20036;-65
2021/12/05 05:52:10;;;;;;;11.23;4.85;;;;;;;;;;5050778;28;20060;-65
2021/12/05 05:54:36;;;;;;;17.17;5.80;;;;;;;;;;5051435;28;20047;-65
2021/12/05 05:57:21;;;;;;;16.90;5.60;;;;;;;;;;5051459;28;20468;-65
2021/12/05 05:59:58;;;;;;;14.60;5.47;;;;;;;;;;5050663;28;20053;-65
2021/12/05 06:05:11;;;;;;;14.85;5.38;;;;;;;;;;5051403;28;20056;-65
2021/12/05 06:07:42;;;;;;;15.38;6.05;;;;;;;;;;5050677;28;20083;-65
2021/12/05 06:10:10;;;;;;;20.92;6.72;;;;;;;;;;5051340;28;20056;-65
2021/12/05 06:12:36;;;;;;;13.75;6.53;;;;;;;;;;5033016;28;20048;-65
2021/12/05 06:15:03;;;;;;;14.75;5.97;;;;;;;;;;5050577;28;20041;-65
2021/12/05 06:17:29;;;;;;;16.65;6.10;;;;;;;;;;5051174;28;20090;-65
2021/12/05 06:19:55;;;;;;;20.60;6.28;;;;;;;;;;5051251;28;20084;-65
2021/12/05 06:22:21;;;;;;;13.95;6.00;;;;;;;;;;5050325;28;20475;-65
2021/12/05 06:24:47;;;;;;;16.08;6.38;;;;;;;;;;5051464;28;20097;-65
2021/12/05 06:27:13;;;;;;;17.27;5.80;;;;;;;;;;5051057;28;20056;-65
2021/12/05 06:29:47;;;;;;;22.75;6.32;;;;;;;;;;5032443;28;20044;-65
2021/12/05 06:32:37;;;;;;;14.23;5.70;;;;;;;;;;5032880;28;20048;-66
2021/12/05 06:38:11;;;;;;;17.35;6.13;;;;;;;;;;5019617;28;20579;-66
2021/12/05 06:40:55;;;;;;;21.45;6.57;;;;;;;;;;5050808;28;20109;-66
2021/12/05 06:46:05;;;;;;;20.20;6.22;;;;;;;;;;5053146;28;20797;-65
2021/12/05 06:48:32;;;;;;;17.75;6.97;;;;;;;;;;5054753;28;20041;-65
2021/12/05 06:50:58;;;;;;;17.95;7.00;;;;;;;;;;5054031;28;20094;-66
2021/12/05 06:53:24;;;;;;;20.45;7.35;;;;;;;;;;5036609;28;20052;-66
2021/12/05 06:55:50;;;;;;;18.80;6.80;;;;;;;;;;5036368;28;20045;-66
2021/12/05 06:58:16;;;;;;;14.85;6.53;;;;;;;;;;5053860;28;20083;-66
2021/12/05 07:00:42;;;;;;;18.35;7.03;;;;;;;;;;5054542;28;20395;-66
2021/12/05 07:03:09;;;;;;;14.80;6.88;;;;;;;;;;5054068;28;20127;-66
2021/12/05 07:08:02;;;;;;;25.67;7.93;;;;;;;;;;5054302;28;20044;-66
2021/12/05 07:10:30;;;;;;;22.40;7.47;;;;;;;;;;5054209;28;20042;-66
2021/12/05 07:13:33;;;;;;;25.83;7.82;;;;;;;;;;5035200;28;20103;-66
2021/12/05 07:15:58;;;;;;;19.48;8.50;;;;;;;;;;5053712;28;20490;-66
2021/12/05 07:42:45;;;;;;;20.65;7.70;;;;;;;;;;5052958;28;20542;-66
2021/12/05 07:45:19;;;;;;;25.17;9.38;;;;;;;;;;5053646;28;20519;-66
2021/12/05 07:47:50;;;;;;;20.15;8.95;;;;;;;;;;5053354;28;20040;-66
2021/12/05 07:50:16;;;;;;;19.88;8.80;;;;;;;;;;5052893;28;20049;-66
2021/12/05 07:52:47;;;;;;;21.38;9.05;;;;;;;;;;5035255;28;20380;-66
2021/12/05 07:55:29;;;;;;;21.63;9.20;;;;;;;;;;5035462;28;20045;-66
2021/12/05 07:58:12;;;;;;;22.20;9.35;;;;;;;;;;5052226;28;20041;-66
2021/12/05 08:14:34;;;;;;;20.38;7.88;;;;;;;;;;5053069;28;20423;-66
2021/12/05 08:17:02;;;;;;;15.60;8.02;;;;;;;;;;5052988;28;20045;-66
2021/12/05 08:19:28;;;;;;;20.90;8.60;;;;;;;;;;5052408;28;20056;-66
2021/12/05 08:21:55;;;;;;;19.75;8.82;;;;;;;;;;5052942;28;20463;-66
2021/12/05 08:24:22;;;;;;;20.50;8.90;;;;;;;;;;5052646;28;20064;-66
2021/12/05 08:26:49;;;;;;;17.15;8.52;;;;;;;;;;5052157;28;20880;-66
2021/12/05 08:29:19;;;;;;;21.38;9.23;;;;;;;;;;5052496;28;20049;-66
2021/12/05 08:34:39;;;;;;;25.05;9.38;;;;;;;;;;5052061;28;20124;-66
2021/12/05 08:37:30;;;;;;;21.70;8.80;;;;;;;;;;5034680;28;20048;-66
2021/12/05 08:40:16;;;;;;;26.98;9.20;;;;;;;;;;5052232;28;20566;-66
2021/12/05 08:43:05;;;;;;;22.63;8.70;;;;;;;;;;5051341;28;20045;-65
2021/12/05 09:21:56;;;;;;;20.70;8.38;;;;;;;;;;5051509;28;20045;-66
2021/12/05 10:07:26;;;;;;;13.70;7.13;;;;;;;;;;5051228;28;20048;-65
2021/12/05 10:10:15;;;;;;;15.95;7.35;;;;;;;;;;5051166;28;20484;-65
2021/12/05 10:13:09;;;;;;;18.55;7.18;;;;;;;;;;5050791;28;20102;-65
2021/12/05 10:26:34;;;;;;;10.40;5.53;;;;;;;;;;5054274;28;20511;-65
2021/12/05 10:35:12;;;;;;;10.93;6.05;;;;;;;;;;5054305;28;20048;-65
2021/12/05 10:38:22;;;;;;;15.02;6.03;;;;;;;;;;5054499;28;20049;-65
2021/12/05 10:40:36;;;;;;;16.38;6.25;;;;;;;;;;5042830;28;20775;-65
2021/12/05 10:43:07;;;;;;;15.10;6.70;;;;;;;;;;5054645;28;20057;-65
2021/12/05 10:45:39;;;;;;;13.18;5.78;;;;;;;;;;5036485;28;20049;-65
2021/12/05 10:48:10;;;;;;;11.95;5.72;;;;;;;;;;5054107;28;20480;-65
2021/12/05 10:50:39;;;;;;;11.60;5.07;;;;;;;;;;5054799;28;20128;-65
2021/12/05 10:53:20;;;;;;;13.35;5.85;;;;;;;;;;5054159;28;20041;-65
2021/12/05 10:55:46;;;;;;;8.15;5.03;;;;;;;;;;5053816;28;20037;-65
2021/12/05 10:58:12;;;;;;;9.82;5.50;;;;;;;;;;5054562;28;20041;-65
2021/12/05 11:00:39;;;;;;;13.35;5.55;;;;;;;;;;5054609;28;20498;-65
2021/12/05 11:03:15;;;;;;;10.77;5.90;;;;;;;;;;5053788;28;20036;-65
2021/12/05 11:05:42;;;;;;;13.50;4.82;;;;;;;;;;5054109;28;20040;-65
2021/12/05 11:08:27;;;;;;;10.35;4.93;;;;;;;;;;5054510;28;20157;-65
2021/12/05 11:11:06;;;;;;;12.23;4.80;;;;;;;;;;5053569;28;20056;-65
2021/12/05 11:13:32;;;;;;;13.70;5.30;;;;;;;;;;5054501;28;20045;-65
2021/12/05 11:15:58;;;;;;;14.73;5.80;;;;;;;;;;5054053;28;20045;-65
2021/12/05 11:18:46;;;;;;;7.85;4.93;;;;;;;;;;5053225;28;20094;-65
2021/12/05 11:21:47;;;;;;;10.77;4.78;;;;;;;;;;5054139;28;20102;-65
2021/12/05 11:24:25;;;;;;;8.05;4.63;;;;;;;;;;4993275;28;20508;-65
2021/12/05 11:27:03;;;;;;;11.90;4.95;;;;;;;;;;5033741;28;20041;-65
2021/12/05 11:29:48;;;;;;;9.60;4.53;;;;;;;;;;5033906;28;20142;-65
2021/12/05 11:32:16;;;;;;;9.48;5.15;;;;;;;;;;5032179;28;20037;-65
2021/12/05 11:34:42;;;;;;;12.60;4.80;;;;;;;;;;5033832;28;20420;-65
2021/12/05 11:37:08;;;;;;;10.02;4.72;;;;;;;;;;5033710;28;20050;-65
2021/12/05 11:39:34;;;;;;;10.13;4.80;;;;;;;;;;5015080;28;20046;-65
2021/12/05 11:42:00;;;;;;;10.43;4.80;;;;;;;;;;5033880;28;20033;-65
2021/12/05 11:44:27;;;;;;;8.35;4.88;;;;;;;;;;5033677;28;20117;-65
2021/12/05 11:46:53;;;;;;;11.50;4.88;;;;;;;;;;5033267;28;20049;-65
2021/12/05 11:49:24;;;;;;;11.02;4.57;;;;;;;;;;5033729;28;20488;-65
2021/12/05 11:51:52;;;;;;;10.05;5.13;;;;;;;;;;5033427;28;20052;-65
2021/12/05 11:54:24;;;;;;;16.20;4.97;;;;;;;;;;5032864;28;20079;-65
2021/12/05 11:57:01;;;;;;;8.52;4.63;;;;;;;;;;5033659;28;20423;-65
2021/12/05 11:59:29;;;;;;;8.10;4.32;;;;;;;;;;5033385;28;20093;-65
2021/12/05 12:01:59;;;;;;;10.07;4.82;;;;;;;;;;5032540;28;20046;-65
2021/12/05 12:04:27;;;;;;;12.30;5.28;;;;;;;;;;5033434;28;20399;-65
2021/12/05 12:07:11;;;;;;;7.93;4.72;;;;;;;;;;5033307;28;20077;-65
2021/12/05 12:09:37;;;;;;;12.15;5.40;;;;;;;;;;5014453;28;20179;-65
2021/12/05 12:12:03;;;;;;;11.35;5.32;;;;;;;;;;5033224;28;20033;-65
2021/12/05 12:14:30;;;;;;;13.88;7.88;;;;;;;;;;5033292;28;20123;-65
2021/12/05 12:16:57;;;;;;;11.43;5.57;;;;;;;;;;5032728;28;20053;-65
2021/12/05 12:19:24;;;;;;;10.82;5.90;;;;;;;;;;5033040;28;20049;-65
2021/12/05 12:21:53;;;;;;;11.70;5.20;;;;;;;;;;5032898;28;20134;-65
2021/12/05 12:24:19;;;;;;;9.60;5.20;;;;;;;;;;5050328;28;20123;-65
2021/12/05 12:26:45;;;;;;;8.40;5.15;;;;;;;;;;5052644;28;20049;-65
2021/12/05 12:29:12;;;;;;;7.95;5.13;;;;;;;;;;5052711;28;20040;-65
2021/12/05 12:31:41;;;;;;;9.63;5.30;;;;;;;;;;5052099;28;20707;-65
2021/12/05 12:34:19;;;;;;;10.10;4.93;;;;;;;;;;5052729;28;20029;-65
2021/12/05 12:36:47;;;;;;;12.57;4.93;;;;;;;;;;5052670;28;20417;-65
2021/12/05 12:39:16;;;;;;;13.75;5.00;;;;;;;;;;5051928;28;20040;-65
2021/12/05 12:41:44;;;;;;;12.48;5.00;;;;;;;;;;5052417;28;20043;-65
2021/12/05 12:44:13;;;;;;;9.40;4.93;;;;;;;;;;5051985;28;20033;-65
2021/12/05 12:46:54;;;;;;;9.27;4.50;;;;;;;;;;5051821;28;20033;-65
2021/12/05 12:49:20;;;;;;;10.85;4.78;;;;;;;;;;5051986;28;20163;-65
2021/12/05 12:51:58;;;;;;;9.98;4.72;;;;;;;;;;5052390;28;20052;-65
2021/12/05 12:54:24;;;;;;;13.68;4.40;;;;;;;;;;5051586;28;20041;-65
2021/12/05 12:57:11;;;;;;;10.10;4.50;;;;;;;;;;5052258;28;20045;-65
2021/12/05 12:59:39;;;;;;;8.80;4.13;;;;;;;;;;5052276;28;20052;-65
2021/12/05 13:05:01;;;;;;;7.00;4.22;;;;;;;;;;5052144;28;20053;-65
2021/12/05 13:10:28;;;;;;;9.23;3.97;;;;;;;;;;5051950;28;20052;-65
2021/12/05 13:13:02;;;;;;;13.13;4.35;;;;;;;;;;5051946;28;20056;-65
2021/12/05 13:16:01;;;;;;;7.60;3.60;;;;;;;;;;5051171;28;20514;-65
2021/12/05 13:18:30;;;;;;;5.55;3.35;;;;;;;;;;5007613;28;20084;-65
2021/12/05 13:21:06;;;;;;;6.95;3.25;;;;;;;;;;5051841;28;20088;-65
2021/12/05 13:23:36;;;;;;;5.70;3.70;;;;;;;;;;5050897;28;20067;-65
2021/12/05 13:26:15;;;;;;;5.88;3.70;;;;;;;;;;5051418;28;20118;-65
2021/12/05 13:28:48;;;;;;;5.18;3.25;;;;;;;;;;5051781;28;20044;-65
2021/12/05 13:31:30;;;;;;;6.05;3.38;;;;;;;;;;5032742;28;20487;-65
2021/12/05 13:34:14;;;;;;;7.68;3.75;;;;;;;;;;5051744;28;20045;-65
2021/12/05 13:36:41;;;;;;;5.15;3.08;;;;;;;;;;5051693;28;20047;-65
2021/12/05 13:39:30;;;;;;;6.03;3.33;;;;;;;;;;5050979;28;20044;-65
2021/12/05 13:42:05;;;;;;;4.25;3.28;;;;;;;;;;5040787;28;20190;-65
2021/12/05 13:44:49;;;;;;;4.82;3.30;;;;;;;;;;5051536;28;20049;-65
2021/12/05 13:47:19;;;;;;;6.38;3.78;;;;;;;;;;5051189;28;20087;-66
2021/12/05 13:49:47;;;;;;;5.60;3.28;;;;;;;;;;5051206;28;20041;-66
2021/12/05 13:52:32;;;;;;;5.40;3.72;;;;;;;;;;5050834;28;20048;-65
2021/12/05 13:55:17;;;;;;;8.73;3.28;;;;;;;;;;5050815;28;20053;-65
2021/12/05 13:58:02;;;;;;;5.80;3.45;;;;;;;;;;5051393;28;20045;-65
2021/12/05 14:00:39;;;;;;;5.38;3.85;;;;;;;;;;5050841;28;20060;-65
2021/12/05 14:03:05;;;;;;;7.93;3.58;;;;;;;;;;5051300;28;20052;-65
2021/12/05 14:05:31;;;;;;;5.50;3.60;;;;;;;;;;5051404;28;20076;-65
2021/12/05 14:07:57;;;;;;;5.80;4.05;;;;;;;;;;5050546;28;20452;-66
2021/12/05 14:10:23;;;;;;;6.47;3.63;;;;;;;;;;5051164;28;20048;-66
2021/12/05 14:12:49;;;;;;;4.88;3.75;;;;;;;;;;5051219;28;20029;-66
2021/12/05 14:15:15;;;;;;;9.05;3.83;;;;;;;;;;5050464;28;20036;-65
2021/12/05 14:17:43;;;;;;;8.13;3.97;;;;;;;;;;5051089;28;20041;-65
2021/12/05 14:20:14;;;;;;;6.78;3.70;;;;;;;;;;5050976;28;20706;-65
2021/12/05 14:22:41;;;;;;;7.28;4.30;;;;;;;;;;5050294;28;20083;-65
2021/12/05 14:25:17;;;;;;;5.40;4.13;;;;;;;;;;5051194;28;20471;-65
2021/12/05 14:27:45;;;;;;;5.38;4.10;;;;;;;;;;5051154;28;20044;-65
2021/12/05 14:30:13;;;;;;;6.00;3.92;;;;;;;;;;5050367;28;20571;-65
2021/12/05 14:32:41;;;;;;;8.18;4.72;;;;;;;;;;5032977;28;20045;-65
2021/12/05 14:35:09;;;;;;;8.13;4.43;;;;;;;;;;5050857;28;20041;-65
2021/12/05 14:37:36;;;;;;;10.18;4.53;;;;;;;;;;5050368;28;20069;-65
2021/12/05 14:40:06;;;;;;;7.80;4.63;;;;;;;;;;5051090;28;20041;-65
2021/12/05 14:42:34;;;;;;;6.72;4.88;;;;;;;;;;5050870;28;20170;-65
2021/12/05 14:45:04;;;;;;;9.32;4.93;;;;;;;;;;5050167;28;20495;-65
2021/12/05 14:47:33;;;;;;;8.40;4.50;;;;;;;;;;5050964;28;20075;-65
2021/12/05 14:50:01;;;;;;;5.63;4.40;;;;;;;;;;5032735;28;20116;-65
2021/12/05 14:52:31;;;;;;;6.88;4.20;;;;;;;;;;5050125;28;20041;-65
2021/12/05 14:54:58;;;;;;;5.22;3.95;;;;;;;;;;5050923;28;20510;-65
2021/12/05 14:57:32;;;;;;;5.18;4.25;;;;;;;;;;5050908;28;20033;-65
2021/12/05 15:00:10;;;;;;;5.88;4.43;;;;;;;;;;5050268;28;20111;-65
2021/12/05 15:02:37;;;;;;;5.70;4.28;;;;;;;;;;5050789;28;20484;-65
2021/12/05 15:05:03;;;;;;;7.15;4.57;;;;;;;;;;5050747;28;20128;-65
2021/12/05 15:07:29;;;;;;;9.52;4.93;;;;;;;;;;5052921;28;20071;-65
2021/12/05 15:09:57;;;;;;;7.68;4.40;;;;;;;;;;5054277;28;20041;-65
2021/12/05 15:12:25;;;;;;;7.47;4.47;;;;;;;;;;5036375;28;20049;-65
2021/12/05 15:14:52;;;;;;;6.45;4.53;;;;;;;;;;5035812;28;20056;-65
2021/12/05 15:17:20;;;;;;;5.55;4.30;;;;;;;;;;5054236;28;20037;-65
2021/12/05 15:19:51;;;;;;;6.38;4.60;;;;;;;;;;5054158;28;20041;-65
2021/12/05 15:22:18;;;;;;;8.10;4.05;;;;;;;;;;5053256;28;20148;-65
2021/12/05 15:24:55;;;;;;;8.20;5.03;;;;;;;;;;5054192;28;20052;-65
2021/12/05 15:27:23;;;;;;;9.02;5.20;;;;;;;;;;5053940;28;20052;-65
2021/12/05 15:29:57;;;;;;;8.20;4.45;;;;;;;;;;5053037;28;20049;-65
2021/12/05 15:32:25;;;;;;;7.28;4.78;;;;;;;;;;5053784;28;20045;-65
2021/12/05 15:34:53;;;;;;;8.60;4.65;;;;;;;;;;5053983;28;20428;-65
2021/12/05 15:37:20;;;;;;;8.25;5.53;;;;;;;;;;5053265;28;20451;-65
2021/12/05 15:39:47;;;;;;;10.52;5.20;;;;;;;;;;5053937;28;20086;-65
2021/12/05 15:42:19;;;;;;;8.43;5.57;;;;;;;;;;5053737;28;20045;-65
2021/12/05 15:44:46;;;;;;;8.00;5.15;;;;;;;;;;5053204;28;20162;-65
2021/12/05 15:47:14;;;;;;;8.85;5.60;;;;;;;;;;5053757;28;20044;-65
2021/12/05 15:50:03;;;;;;;7.28;5.10;;;;;;;;;;5053391;28;20037;-65
2021/12/05 15:52:49;;;;;;;11.73;5.20;;;;;;;;;;5015251;28;20045;-65
2021/12/05 15:55:36;;;;;;;7.40;5.35;;;;;;;;;;5053118;28;20167;-65
2021/12/05 15:58:09;;;;;;;11.07;5.80;;;;;;;;;;5034925;28;20044;-65
2021/12/05 16:00:40;;;;;;;7.43;5.45;;;;;;;;;;5053395;28;20102;-65
2021/12/05 16:03:08;;;;;;;9.90;6.83;;;;;;;;;;5053363;28;20041;-65
2021/12/05 16:05:35;;;;;;;8.75;5.85;;;;;;;;;;5052364;28;20267;-65
2021/12/05 16:08:03;;;;;;;8.95;5.40;;;;;;;;;;5053211;28;20041;-65
2021/12/05 16:10:30;;;;;;;7.38;5.45;;;;;;;;;;5053161;28;20041;-65
2021/12/05 16:12:56;;;;;;;13.23;6.28;;;;;;;;;;5052226;28;20102;-65
2021/12/05 16:15:26;;;;;;;7.18;5.60;;;;;;;;;;5035178;28;20048;-65
2021/12/05 16:17:56;;;;;;;11.68;5.38;;;;;;;;;;5052323;28;20044;-65
2021/12/05 16:20:26;;;;;;;9.93;5.80;;;;;;;;;;5052377;28;20147;-65
2021/12/05 16:23:11;;;;;;;7.80;5.50;;;;;;;;;;5052454;28;20507;-65
2021/12/05 16:25:43;;;;;;;9.50;5.40;;;;;;;;;;5052790;28;20120;-65
2021/12/05 16:28:12;;;;;;;10.23;5.75;;;;;;;;;;5052154;28;20052;-65
2021/12/05 16:30:44;;;;;;;9.35;5.80;;;;;;;;;;5052850;28;20064;-65
2021/12/05 16:33:11;;;;;;;11.07;6.18;;;;;;;;;;5052689;28;20523;-65
2021/12/05 16:35:43;;;;;;;10.35;6.15;;;;;;;;;;5052179;28;20052;-65
2021/12/05 16:38:21;;;;;;;7.68;5.43;;;;;;;;;;5052564;28;20080;-65
2021/12/05 16:41:00;;;;;;;9.15;6.03;;;;;;;;;;5052657;28;20052;-65
2021/12/05 16:43:26;;;;;;;8.25;6.20;;;;;;;;;;5051817;28;20087;-65
2021/12/05 16:45:55;;;;;;;11.30;6.72;;;;;;;;;;5052603;28;20058;-65
2021/12/05 16:48:22;;;;;;;11.52;6.60;;;;;;;;;;5052490;28;20442;-65
2021/12/05 16:50:48;;;;;;;10.65;6.70;;;;;;;;;;5051800;28;20045;-65
2021/12/05 16:53:15;;;;;;;10.35;6.75;;;;;;;;;;5052408;28;20475;-65
2021/12/05 16:55:45;;;;;;;10.80;7.03;;;;;;;;;;5052400;28;20043;-65
2021/12/05 16:58:17;;;;;;;15.05;7.82;;;;;;;;;;5051791;28;20033;-65
2021/12/05 17:00:49;;;;;;;15.70;7.90;;;;;;;;;;5052106;28;20052;-65
2021/12/05 17:03:26;;;;;;;12.63;8.00;;;;;;;;;;5051902;28;20045;-65
2021/12/05 17:05:59;;;;;;;13.50;8.05;;;;;;;;;;5051393;28;20074;-65
2021/12/05 17:08:25;;;;;;;15.68;8.40;;;;;;;;;;5034195;28;20044;-65
2021/12/05 17:10:55;;;;;;;18.48;9.52;;;;;;;;;;5052205;28;20044;-65
2021/12/05 17:13:24;;;;;;;15.73;8.55;;;;;;;;;;5051384;28;20033;-65
2021/12/05 17:15:52;;;;;;;18.17;9.68;;;;;;;;;;5052048;28;20041;-65
2021/12/05 17:18:21;;;;;;;17.65;10.25;;;;;;;;;;5033922;28;20122;-65
2021/12/05 17:20:49;;;;;;;20.55;9.77;;;;;;;;;;5051354;28;20037;-65
2021/12/05 17:23:20;;;;;;;14.73;8.70;;;;;;;;;;5051545;28;20395;-65
2021/12/05 17:25:48;;;;;;;18.38;10.00;;;;;;;;;;5051838;28;20483;-65
2021/12/05 17:28:29;;;;;;;19.08;9.27;;;;;;;;;;5051159;28;20421;-65
2021/12/05 17:30:56;;;;;;;18.15;8.90;;;;;;;;;;5050482;28;20099;-65
2021/12/05 17:33:34;;;;;;;17.20;9.50;;;;;;;;;;5051606;28;20082;-65
2021/12/05 17:36:20;;;;;;;21.90;9.73;;;;;;;;;;5050667;28;20037;-65
2021/12/05 17:38:46;;;;;;;18.65;9.93;;;;;;;;;;5051371;28;20037;-65
2021/12/05 17:41:13;;;;;;;18.17;9.40;;;;;;;;;;5016973;28;20041;-65
2021/12/05 17:43:39;;;;;;;15.68;9.40;;;;;;;;;;5051071;28;20497;-65
2021/12/05 17:46:05;;;;;;;18.55;11.02;;;;;;;;;;5051741;28;20124;-65
2021/12/05 17:48:33;;;;;;;21.20;10.27;;;;;;;;;;5051482;28;20155;-65
2021/12/05 17:51:03;;;;;;;19.33;10.95;;;;;;;;;;5050604;28;20057;-65
2021/12/05 17:53:31;;;;;;;22.77;11.02;;;;;;;;;;5051636;28;20483;-65
2021/12/05 17:56:12;;;;;;;21.73;10.68;;;;;;;;;;5051512;28;20041;-65
2021/12/05 18:03:52;;;;;;;19.80;11.95;;;;;;;;;;5050322;28;20059;-65
2021/12/05 18:06:18;;;;;;;23.17;11.63;;;;;;;;;;5033225;28;20135;-66
2021/12/05 18:08:44;;;;;;;29.05;13.10;;;;;;;;;;5033582;28;20041;-66
2021/12/05 18:11:15;;;;;;;28.33;13.27;;;;;;;;;;5050445;28;20087;-66
2021/12/05 18:13:44;;;;;;;24.08;12.40;;;;;;;;;;5050981;28;20572;-66
2021/12/05 18:16:15;;;;;;;25.08;11.95;;;;;;;;;;5051173;28;20045;-66
2021/12/05 18:18:42;;;;;;;26.65;14.50;;;;;;;;;;5050351;28;20045;-65
2021/12/05 18:21:09;;;;;;;26.27;14.32;;;;;;;;;;5033124;28;20052;-65
2021/12/05 18:23:37;;;;;;;25.17;13.68;;;;;;;;;;5050819;28;20526;-65
2021/12/05 18:26:04;;;;;;;27.38;15.52;;;;;;;;;;5050464;28;20045;-65
2021/12/05 18:28:30;;;;;;;29.15;14.57;;;;;;;;;;5051052;28;20818;-65
2021/12/05 18:30:57;;;;;;;27.92;15.27;;;;;;;;;;5033017;28;20508;-65
2021/12/05 18:33:26;;;;;;;27.33;15.27;;;;;;;;;;5050200;28;20132;-65
2021/12/05 18:35:52;;;;;;;32.38;16.23;;;;;;;;;;5051018;28;20090;-65
2021/12/05 18:38:23;;;;;;;31.63;17.13;;;;;;;;;;5051154;28;20048;-65
2021/12/05 18:40:51;;;;;;;34.00;15.65;;;;;;;;;;5032821;28;20049;-65
2021/12/05 18:43:21;;;;;;;38.70;16.63;;;;;;;;;;5054375;28;20479;-65
2021/12/05 18:45:47;;;;;;;37.08;17.48;;;;;;;;;;5054492;28;20094;-65
2021/12/05 18:48:13;;;;;;;32.33;15.65;;;;;;;;;;5053852;28;20131;-65
2021/12/05 18:50:40;;;;;;;32.30;17.10;;;;;;;;;;5054782;28;20044;-65
2021/12/05 18:53:06;;;;;;;36.50;17.65;;;;;;;;;;5036813;28;20049;-65
2021/12/05 18:55:34;;;;;;;33.03;17.08;;;;;;;;;;5054049;28;20037;-65
2021/12/05 18:58:07;;;;;;;32.25;17.70;;;;;;;;;;5054653;28;20364;-65
2021/12/05 19:00:40;;;;;;;33.97;17.42;;;;;;;;;;5054369;28;20048;-65
2021/12/05 19:05:56;;;;;;;33.97;17.85;;;;;;;;;;5054536;28;20052;-65
2021/12/05 19:13:41;;;;;;;38.40;17.45;;;;;;;;;;5054343;28;20052;-65
2021/12/05 19:16:07;;;;;;;31.13;16.50;;;;;;;;;;5054327;28;20082;-65
2021/12/05 19:18:33;;;;;;;29.63;16.65;;;;;;;;;;5053709;28;20120;-65
2021/12/05 19:21:00;;;;;;;37.03;19.02;;;;;;;;;;5054265;28;20574;-66
2021/12/05 19:23:26;;;;;;;32.97;16.95;;;;;;;;;;5053857;28;20099;-66
2021/12/05 19:25:52;;;;;;;33.15;16.38;;;;;;;;;;5053437;28;20044;-66
2021/12/05 19:28:18;;;;;;;36.47;18.02;;;;;;;;;;5054044;28;20051;-66
2021/12/05 19:30:47;;;;;;;32.40;17.45;;;;;;;;;;5035795;28;20175;-66
2021/12/05 19:33:14;;;;;;;36.00;18.52;;;;;;;;;;5053186;28;20044;-66
2021/12/05 19:35:41;;;;;;;34.25;18.63;;;;;;;;;;5054154;28;20479;-65
2021/12/05 19:38:08;;;;;;;39.08;17.85;;;;;;;;;;5053516;28;20044;-65
2021/12/05 19:40:34;;;;;;;29.23;16.08;;;;;;;;;;5053251;28;20123;-65
2021/12/05 19:43:01;;;;;;;31.20;15.95;;;;;;;;;;5053884;28;20545;-65
2021/12/05 19:45:29;;;;;;;34.22;18.33;;;;;;;;;;5053616;28;20052;-65
2021/12/05 19:47:57;;;;;;;32.58;17.50;;;;;;;;;;5053058;28;20045;-65
2021/12/05 19:50:24;;;;;;;31.13;15.98;;;;;;;;;;5053268;28;20049;-65
2021/12/05 19:52:51;;;;;;;32.13;15.45;;;;;;;;;;5052618;28;20037;-65
2021/12/05 19:55:18;;;;;;;29.42;15.80;;;;;;;;;;5053036;28;20033;-65
2021/12/05 19:57:45;;;;;;;26.30;14.18;;;;;;;;;;5053610;28;20051;-65